createdAt,value
2022-12-28T00:00:42.163Z,4
2022-12-28T00:01:42.203Z,4
2022-12-28T00:02:42.186Z,4
2022-12-28T00:03:42.082Z,4
2022-12-28T00:04:42.183Z,4
2022-12-28T00:05:42.059Z,4
2022-12-28T00:06:42.052Z,4
2022-12-28T00:07:42.041Z,4
2022-12-28T00:08:42.025Z,4
2022-12-28T00:09:42.021Z,4
2022-12-28T00:11:07.844Z,4
2022-12-28T00:11:43.025Z,4
2022-12-28T00:12:41.989Z,4
2022-12-28T00:13:41.985Z,4
2022-12-28T00:14:41.978Z,4
2022-12-28T00:15:41.963Z,4
2022-12-28T00:16:42.041Z,4
2022-12-28T00:17:41.939Z,4
2022-12-28T00:18:41.957Z,4
2022-12-28T00:19:41.918Z,4
2022-12-28T00:20:41.906Z,4
2022-12-28T00:21:41.906Z,4
2022-12-28T00:22:41.888Z,4
2022-12-28T00:23:41.880Z,4
2022-12-28T00:24:41.869Z,5
2022-12-28T00:25:41.859Z,5
2022-12-28T00:26:41.849Z,5
2022-12-28T00:27:41.838Z,6
2022-12-28T00:28:41.831Z,5
2022-12-28T00:29:41.820Z,6
2022-12-28T00:30:41.809Z,6
2022-12-28T00:37:10.477Z,5
2022-12-28T00:37:41.739Z,6
2022-12-28T00:38:41.729Z,6
2022-12-28T00:39:41.722Z,6
2022-12-28T00:42:41.690Z,6
2022-12-28T00:43:41.678Z,6
2022-12-28T00:44:41.666Z,5
2022-12-28T00:48:41.632Z,5
2022-12-28T00:49:41.628Z,5
2022-12-28T00:50:41.628Z,5
2022-12-28T00:51:41.615Z,5
2022-12-28T00:52:41.686Z,5
2022-12-28T00:53:41.625Z,5
2022-12-28T00:54:41.565Z,5
2022-12-28T00:56:41.556Z,5
2022-12-28T00:57:41.546Z,5
2022-12-28T00:58:41.534Z,5
2022-12-28T01:02:41.639Z,5
2022-12-28T01:03:41.498Z,5
2022-12-28T01:04:41.469Z,5
2022-12-28T01:05:41.471Z,5
2022-12-28T01:10:41.411Z,5
2022-12-28T01:11:41.399Z,4
2022-12-28T01:12:41.385Z,4
2022-12-28T01:13:41.376Z,4
2022-12-28T01:14:41.379Z,5
2022-12-28T01:15:41.374Z,5
2022-12-28T01:59:40.909Z,3
2022-12-28T02:00:40.905Z,3
2022-12-28T02:01:40.994Z,3
2022-12-28T02:02:41.001Z,3
2022-12-28T02:03:40.868Z,3
2022-12-28T02:04:40.864Z,3
2022-12-28T02:05:40.869Z,3
2022-12-28T02:06:40.836Z,3
2022-12-28T02:07:40.871Z,3
2022-12-28T02:08:40.822Z,3
2022-12-28T02:09:40.812Z,3
2022-12-28T02:10:45.684Z,3
2022-12-28T02:11:40.787Z,3
2022-12-28T02:12:40.849Z,3
2022-12-28T02:18:40.714Z,3
2022-12-28T02:19:40.707Z,3
2022-12-28T02:20:40.698Z,4
2022-12-28T02:21:40.683Z,3
2022-12-28T02:22:40.671Z,3
2022-12-28T02:23:40.693Z,3
2022-12-28T02:24:40.658Z,3
2022-12-28T02:25:40.648Z,3
2022-12-28T02:26:40.655Z,3
2022-12-28T02:27:40.624Z,3
2022-12-28T02:28:40.616Z,3
2022-12-28T02:29:40.648Z,3
2022-12-28T02:30:40.658Z,3
2022-12-28T02:31:40.588Z,3
2022-12-28T02:32:40.574Z,3
2022-12-28T02:33:40.563Z,3
2022-12-28T02:34:40.557Z,2
2022-12-28T02:35:40.550Z,3
2022-12-28T02:36:40.540Z,3
2022-12-28T02:37:40.554Z,3
2022-12-28T02:38:40.521Z,3
2022-12-28T02:39:40.511Z,3
2022-12-28T02:40:40.494Z,3
2022-12-28T02:41:40.486Z,3
2022-12-28T02:42:40.506Z,3
2022-12-28T02:43:40.468Z,3
2022-12-28T02:44:40.462Z,3
2022-12-28T02:45:40.620Z,3
2022-12-28T02:46:40.437Z,3
2022-12-28T02:47:40.448Z,3
2022-12-28T02:48:40.416Z,3
2022-12-28T02:49:40.405Z,3
2022-12-28T02:50:40.396Z,3
2022-12-28T02:51:40.385Z,3
2022-12-28T02:52:40.382Z,3
2022-12-28T02:53:40.366Z,3
2022-12-28T02:54:40.354Z,3
2022-12-28T02:55:40.346Z,2
2022-12-28T02:56:40.337Z,2
2022-12-28T02:57:40.324Z,2
2022-12-28T02:58:40.343Z,2
2022-12-28T02:59:40.305Z,3
2022-12-28T03:00:40.294Z,2
2022-12-28T03:01:40.456Z,3
2022-12-28T03:02:40.460Z,3
2022-12-28T03:03:40.282Z,3
2022-12-28T03:04:40.254Z,3
2022-12-28T03:05:40.242Z,2
2022-12-28T03:06:40.234Z,3
2022-12-28T03:07:40.227Z,3
2022-12-28T03:08:40.213Z,3
2022-12-28T03:09:40.205Z,2
2022-12-28T03:10:40.194Z,2
2022-12-28T03:11:40.183Z,2
2022-12-28T03:12:40.177Z,3
2022-12-28T03:13:40.162Z,3
2022-12-28T03:14:40.233Z,3
2022-12-28T03:15:40.191Z,2
2022-12-28T03:16:40.136Z,3
2022-12-28T03:17:40.125Z,2
2022-12-28T03:18:40.116Z,3
2022-12-28T03:19:40.115Z,3
2022-12-28T03:20:40.095Z,3
2022-12-28T03:21:40.083Z,3
2022-12-28T03:22:40.072Z,2
2022-12-28T03:23:40.112Z,2
2022-12-28T03:24:40.101Z,2
2022-12-28T03:25:40.043Z,2
2022-12-28T03:26:40.034Z,2
2022-12-28T03:27:40.031Z,2
2022-12-28T03:28:40.022Z,2
2022-12-28T03:29:40.144Z,2
2022-12-28T03:30:40.081Z,2
2022-12-28T03:31:39.983Z,2
2022-12-28T03:32:39.972Z,3
2022-12-28T03:33:39.963Z,2
2022-12-28T03:34:39.964Z,2
2022-12-28T03:35:39.945Z,2
2022-12-28T03:36:39.936Z,3
2022-12-28T03:37:39.927Z,2
2022-12-28T03:38:39.917Z,2
2022-12-28T03:39:39.920Z,2
2022-12-28T03:40:39.900Z,2
2022-12-28T03:41:39.882Z,2
2022-12-28T03:42:39.875Z,2
2022-12-28T03:43:39.865Z,2
2022-12-28T03:44:39.854Z,2
2022-12-28T03:45:45.054Z,2
2022-12-28T03:46:40.928Z,2
2022-12-28T03:47:39.827Z,2
2022-12-28T03:48:39.816Z,3
2022-12-28T03:49:39.809Z,3
2022-12-28T03:50:39.795Z,3
2022-12-28T03:51:39.786Z,3
2022-12-28T03:52:39.774Z,3
2022-12-28T03:53:39.770Z,3
2022-12-28T03:54:39.756Z,3
2022-12-28T03:55:39.811Z,3
2022-12-28T03:56:39.734Z,3
2022-12-28T03:57:39.724Z,3
2022-12-28T03:58:39.719Z,3
2022-12-28T03:59:39.713Z,3
2022-12-28T04:00:39.693Z,3
2022-12-28T04:01:39.838Z,3
2022-12-28T04:02:39.803Z,3
2022-12-28T04:03:39.720Z,3
2022-12-28T04:04:39.662Z,3
2022-12-28T04:05:39.646Z,3
2022-12-28T04:06:39.668Z,3
2022-12-28T04:07:39.626Z,3
2022-12-28T04:08:39.614Z,3
2022-12-28T04:09:39.605Z,3
2022-12-28T04:10:39.597Z,3
2022-12-28T04:11:39.607Z,3
2022-12-28T04:12:39.571Z,3
2022-12-28T04:13:39.561Z,3
2022-12-28T04:14:39.553Z,3
2022-12-28T04:15:39.573Z,3
2022-12-28T04:16:39.538Z,3
2022-12-28T04:17:39.525Z,3
2022-12-28T04:18:39.538Z,2
2022-12-28T04:19:39.503Z,2
2022-12-28T04:20:39.495Z,2
2022-12-28T04:21:39.487Z,2
2022-12-28T04:22:39.474Z,2
2022-12-28T04:23:39.471Z,2
2022-12-28T04:24:39.457Z,3
2022-12-28T04:25:39.446Z,3
2022-12-28T04:26:39.435Z,3
2022-12-28T04:27:39.422Z,3
2022-12-28T04:28:39.413Z,3
2022-12-28T04:29:39.402Z,2
2022-12-28T04:30:39.393Z,3
2022-12-28T04:31:39.419Z,2
2022-12-28T04:32:39.373Z,2
2022-12-28T04:33:39.365Z,2
2022-12-28T04:34:44.693Z,2
2022-12-28T04:35:40.375Z,2
2022-12-28T04:36:39.328Z,2
2022-12-28T04:37:39.319Z,2
2022-12-28T04:38:39.310Z,2
2022-12-28T04:39:55.396Z,2
2022-12-28T04:40:39.295Z,2
2022-12-28T04:41:39.283Z,2
2022-12-28T04:42:39.269Z,2
2022-12-28T04:43:39.261Z,2
2022-12-28T04:44:39.250Z,2
2022-12-28T04:45:39.243Z,2
2022-12-28T04:46:39.256Z,2
2022-12-28T04:47:39.221Z,2
2022-12-28T04:48:39.209Z,2
2022-12-28T04:49:39.229Z,2
2022-12-28T04:50:39.212Z,2
2022-12-28T04:51:39.178Z,2
2022-12-28T04:52:39.168Z,2
2022-12-28T04:53:39.163Z,2
2022-12-28T04:54:39.163Z,2
2022-12-28T04:55:39.150Z,2
2022-12-28T04:56:39.126Z,2
2022-12-28T04:57:39.131Z,2
2022-12-28T04:58:39.137Z,2
2022-12-28T04:59:39.101Z,2
2022-12-28T05:00:39.110Z,2
2022-12-28T05:01:39.317Z,2
2022-12-28T05:02:39.144Z,2
2022-12-28T05:03:39.074Z,2
2022-12-28T05:04:39.064Z,2
2022-12-28T05:05:39.047Z,2
2022-12-28T05:06:39.049Z,2
2022-12-28T05:07:39.014Z,2
2022-12-28T05:08:39.007Z,2
2022-12-28T05:09:39.001Z,2
2022-12-28T05:10:38.998Z,2
2022-12-28T05:11:38.978Z,2
2022-12-28T05:12:38.981Z,2
2022-12-28T05:13:38.957Z,2
2022-12-28T05:14:38.944Z,2
2022-12-28T05:15:38.939Z,2
2022-12-28T05:16:39.001Z,2
2022-12-28T05:17:38.917Z,2
2022-12-28T05:18:38.906Z,2
2022-12-28T05:19:38.897Z,2
2022-12-28T05:20:38.887Z,2
2022-12-28T05:21:38.880Z,2
2022-12-28T05:22:41.033Z,2
2022-12-28T05:23:38.959Z,2
2022-12-28T05:24:38.851Z,2
2022-12-28T05:25:38.838Z,2
2022-12-28T05:26:38.830Z,2
2022-12-28T05:27:38.814Z,2
2022-12-28T05:28:38.803Z,2
2022-12-28T05:29:38.793Z,2
2022-12-28T05:30:38.790Z,2
2022-12-28T05:31:38.848Z,2
2022-12-28T05:32:38.770Z,2
2022-12-28T05:33:38.754Z,2
2022-12-28T05:34:38.744Z,2
2022-12-28T05:35:38.737Z,2
2022-12-28T05:36:38.728Z,2
2022-12-28T05:37:38.715Z,2
2022-12-28T05:38:38.742Z,2
2022-12-28T05:39:38.714Z,2
2022-12-28T05:40:38.690Z,2
2022-12-28T05:41:38.684Z,2
2022-12-28T05:42:38.665Z,2
2022-12-28T05:43:38.670Z,2
2022-12-28T05:44:38.649Z,2
2022-12-28T05:45:38.638Z,2
2022-12-28T05:46:38.651Z,2
2022-12-28T05:47:38.618Z,2
2022-12-28T05:48:38.608Z,2
2022-12-28T05:49:38.596Z,2
2022-12-28T05:50:38.588Z,2
2022-12-28T05:51:40.046Z,2
2022-12-28T05:52:38.979Z,2
2022-12-28T05:53:38.605Z,2
2022-12-28T05:54:38.572Z,2
2022-12-28T05:55:38.545Z,2
2022-12-28T05:56:38.558Z,2
2022-12-28T05:57:38.563Z,2
2022-12-28T05:58:38.601Z,2
2022-12-28T05:59:38.535Z,2
2022-12-28T06:00:38.487Z,2
2022-12-28T06:01:38.694Z,2
2022-12-28T06:02:38.611Z,2
2022-12-28T06:03:38.565Z,2
2022-12-28T06:04:38.462Z,2
2022-12-28T06:05:38.446Z,2
2022-12-28T06:06:38.436Z,2
2022-12-28T06:07:38.444Z,2
2022-12-28T06:08:38.418Z,2
2022-12-28T06:09:38.399Z,2
2022-12-28T06:10:38.415Z,2
2022-12-28T06:11:38.376Z,23.
2022-12-28T06:12:38.367Z,2
2022-12-28T06:13:38.363Z,2
2022-12-28T06:14:38.360Z,2
2022-12-28T06:15:38.339Z,22.
2022-12-28T06:16:38.418Z,2
2022-12-28T06:17:38.312Z,2
2022-12-28T06:18:38.310Z,2
2022-12-28T06:19:38.295Z,2
2022-12-28T06:20:38.310Z,2
2022-12-28T06:21:38.295Z,2
2022-12-28T06:22:38.262Z,2
2022-12-28T06:23:38.259Z,2
2022-12-28T06:24:38.242Z,22.
2022-12-28T06:25:38.236Z,22.
2022-12-28T06:26:38.283Z,23.
2022-12-28T06:27:38.235Z,23.
2022-12-28T06:28:38.208Z,23.
2022-12-28T06:29:38.196Z,24.
2022-12-28T06:30:38.184Z,2
2022-12-28T06:31:38.319Z,2
2022-12-28T06:32:38.165Z,2
2022-12-28T06:33:38.170Z,2
2022-12-28T06:34:38.156Z,2
2022-12-28T06:35:38.133Z,23.
2022-12-28T06:36:38.126Z,24.
2022-12-28T06:37:38.116Z,24.
2022-12-28T06:38:38.108Z,2
2022-12-28T06:39:38.107Z,2
2022-12-28T06:41:11.681Z,2
2022-12-28T06:41:39.095Z,23.
2022-12-28T06:42:38.091Z,25.
2022-12-28T06:43:38.053Z,25.
2022-12-28T06:44:44.312Z,24.
2022-12-28T06:45:39.077Z,23.
2022-12-28T06:46:38.025Z,21.
2022-12-28T06:47:38.013Z,22.
2022-12-28T06:48:38.026Z,22.
2022-12-28T06:49:37.992Z,22.
2022-12-28T06:50:40.160Z,22.
2022-12-28T06:51:37.979Z,23.
2022-12-28T06:52:37.961Z,22.
2022-12-28T06:53:38.009Z,22.
2022-12-28T06:54:37.946Z,23.
2022-12-28T06:55:37.935Z,23.
2022-12-28T06:56:37.949Z,23.
2022-12-28T06:57:37.912Z,24.
2022-12-28T06:58:37.935Z,23.
2022-12-28T06:59:37.892Z,23.
2022-12-28T07:00:37.893Z,23.
2022-12-28T07:01:38.107Z,22.
2022-12-28T07:02:38.042Z,22.
2022-12-28T07:03:37.860Z,22.
2022-12-28T07:04:37.847Z,22.
2022-12-28T07:05:37.843Z,23.
2022-12-28T07:06:37.882Z,22.
2022-12-28T07:07:37.812Z,22.
2022-12-28T07:08:37.812Z,21.
2022-12-28T07:09:37.800Z,21.
2022-12-28T07:10:37.793Z,23.
2022-12-28T07:11:37.799Z,22.
2022-12-28T07:12:37.763Z,22.
2022-12-28T07:13:37.785Z,22.
2022-12-28T07:14:37.796Z,22.
2022-12-28T07:15:37.749Z,23.
2022-12-28T07:17:03.456Z,2
2022-12-28T07:18:03.448Z,22.
2022-12-28T07:19:03.448Z,22.89
2022-12-28T07:20:03.418Z,23.60
2022-12-28T07:21:03.411Z,23.50
2022-12-28T07:22:03.407Z,23.60
2022-12-28T07:23:03.382Z,22.39
2022-12-28T07:24:03.380Z,23.70
2022-12-28T07:25:03.364Z,23.60
2022-12-28T07:26:03.353Z,23.70
2022-12-28T07:27:03.505Z,24.00
2022-12-28T07:28:03.336Z,23.29
2022-12-28T07:29:03.325Z,22.39
2022-12-28T07:30:03.354Z,23.00
2022-12-28T07:31:03.328Z,22.79
2022-12-28T07:32:03.317Z,23.10
2022-12-28T07:33:03.286Z,22.10
2022-12-28T07:34:03.271Z,22.10
2022-12-28T07:35:03.262Z,22.39
2022-12-28T07:36:03.270Z,21.50
2022-12-28T07:37:03.352Z,22.50
2022-12-28T07:38:03.237Z,21.60
2022-12-28T07:39:03.239Z,21.50
2022-12-28T07:40:03.217Z,21.29
2022-12-28T07:41:03.221Z,21.10
2022-12-28T07:42:03.192Z,21.00
2022-12-28T07:43:03.336Z,21.60
2022-12-28T07:44:03.171Z,21.79
2022-12-28T07:45:03.168Z,20.60
2022-12-28T07:46:03.225Z,20.79
2022-12-28T07:47:03.138Z,21.20
2022-12-28T07:48:03.138Z,21.50
2022-12-28T07:49:03.118Z,21.60
2022-12-28T07:50:03.110Z,20.60
2022-12-28T07:51:03.097Z,21.20
2022-12-28T07:52:03.089Z,20.29
2022-12-28T07:53:03.081Z,21.39
2022-12-28T07:54:03.088Z,21.00
2022-12-28T07:55:03.063Z,20.79
2022-12-28T07:56:03.042Z,20.89
2022-12-28T07:57:03.037Z,20.70
2022-12-28T07:58:03.021Z,21.79
2022-12-28T07:59:03.019Z,21.20
2022-12-28T08:00:03.012Z,21.39
2022-12-28T08:01:03.105Z,21.00
2022-12-28T08:02:03.133Z,22.00
2022-12-28T08:03:02.978Z,22.00
2022-12-28T08:04:03.133Z,21.70
2022-12-28T08:05:02.955Z,21.10
2022-12-28T08:06:02.943Z,20.79
2022-12-28T08:07:02.932Z,20.79
2022-12-28T08:08:03.953Z,19.89
2022-12-28T08:09:02.929Z,20.20
2022-12-28T08:10:02.904Z,20.39
2022-12-28T08:11:02.892Z,21.10
2022-12-28T08:12:02.879Z,22.70
2022-12-28T08:13:02.869Z,21.79
2022-12-28T08:14:02.915Z,22.29
2022-12-28T08:15:02.873Z,22.10
2022-12-28T08:16:02.933Z,22.79
2022-12-28T08:17:02.834Z,22.89
2022-12-28T08:18:02.840Z,22.70
2022-12-28T08:19:02.809Z,22.50
2022-12-28T08:20:02.798Z,21.70
2022-12-28T08:21:02.800Z,21.00
2022-12-28T08:22:02.780Z,20.70
2022-12-28T08:23:02.775Z,21.39
2022-12-28T08:24:02.767Z,21.10
2022-12-28T08:25:02.751Z,20.50
2022-12-28T08:26:02.737Z,20.60
2022-12-28T08:27:02.726Z,19.50
2022-12-28T08:28:02.714Z,19.79
2022-12-28T08:29:02.705Z,19.20
2022-12-28T08:30:02.699Z,19.00
2022-12-28T08:31:02.733Z,18.89
2022-12-28T08:32:02.680Z,18.50
2022-12-28T08:33:02.673Z,18.79
2022-12-28T08:34:02.678Z,19.39
2022-12-28T08:35:02.667Z,17.79
2022-12-28T08:36:02.646Z,18.79
2022-12-28T08:37:02.625Z,18.70
2022-12-28T08:38:02.612Z,19.00
2022-12-28T08:39:02.605Z,19.29
2022-12-28T08:40:02.591Z,18.70
2022-12-28T08:41:02.598Z,19.10
2022-12-28T08:42:02.569Z,18.39
2022-12-28T08:43:02.560Z,19.29
2022-12-28T08:44:02.552Z,19.29
2022-12-28T08:45:02.583Z,19.00
2022-12-28T08:46:02.738Z,18.29
2022-12-28T08:47:02.583Z,19.00
2022-12-28T08:48:02.515Z,18.50
2022-12-28T08:49:02.504Z,18.00
2022-12-28T08:50:02.542Z,19.10
2022-12-28T08:51:02.487Z,18.79
2022-12-28T08:52:02.563Z,18.70
2022-12-28T08:53:02.454Z,18.89
2022-12-28T08:54:02.451Z,19.10
2022-12-28T08:55:02.433Z,18.70
2022-12-28T08:56:06.391Z,17.89
2022-12-28T08:57:02.414Z,16.89
2022-12-28T08:58:02.402Z,17.89
2022-12-28T08:59:02.392Z,17.29
2022-12-28T09:00:02.385Z,17.00
2022-12-28T09:01:02.406Z,17.29
2022-12-28T09:02:02.575Z,15.69
2022-12-28T09:03:02.478Z,16.39
2022-12-28T09:04:02.356Z,15.89
2022-12-28T09:05:02.329Z,15.60
2022-12-28T09:06:02.342Z,16.79
2022-12-28T09:07:02.304Z,16.39
2022-12-28T09:08:02.307Z,16.60
2022-12-28T09:09:06.224Z,16.39
2022-12-28T09:10:02.337Z,16.70
2022-12-28T09:11:02.284Z,15.80
2022-12-28T09:12:02.256Z,15.30
2022-12-28T09:13:02.246Z,14.80
2022-12-28T09:14:02.237Z,15.00
2022-12-28T09:15:02.227Z,14.80
2022-12-28T09:16:02.277Z,14.39
2022-12-28T09:17:02.210Z,14.89
2022-12-28T09:18:02.197Z,15.30
2022-12-28T09:19:02.187Z,14.69
2022-12-28T09:20:02.169Z,15.19
2022-12-28T09:21:02.164Z,15.30
2022-12-28T09:22:02.171Z,15.69
2022-12-28T09:23:02.161Z,14.89
2022-12-28T09:24:02.138Z,15.10
2022-12-28T09:25:02.120Z,15.10
2022-12-28T09:26:02.107Z,15.19
2022-12-28T09:27:02.096Z,16.00
2022-12-28T09:28:02.100Z,15.30
2022-12-28T09:29:02.072Z,14.80
2022-12-28T09:30:02.067Z,15.30
2022-12-28T09:31:02.104Z,14.69
2022-12-28T09:32:02.057Z,15.00
2022-12-28T09:33:02.033Z,15.30
2022-12-28T09:35:03.032Z,14.80
2022-12-28T09:36:02.006Z,15.00
2022-12-28T09:37:01.992Z,15.80
2022-12-28T09:38:02.004Z,14.80
2022-12-28T09:39:02.010Z,15.50
2022-12-28T09:40:02.104Z,15.19
2022-12-28T09:41:01.954Z,15.60
2022-12-28T09:42:01.955Z,15.89
2022-12-28T09:43:01.934Z,15.50
2022-12-28T09:44:01.917Z,15.39
2022-12-28T09:45:01.918Z,15.89
2022-12-28T09:46:02.111Z,15.50
2022-12-28T09:47:01.974Z,15.19
2022-12-28T09:48:01.872Z,15.50
2022-12-28T09:49:01.867Z,15.39
2022-12-28T09:50:01.859Z,16.29
2022-12-28T09:51:01.846Z,16.00
2022-12-28T09:52:01.835Z,16.10
2022-12-28T09:53:01.826Z,15.60
2022-12-28T09:54:01.844Z,14.19
2022-12-28T09:55:01.820Z,15.19
2022-12-28T09:56:01.792Z,14.80
2022-12-28T09:57:01.785Z,14.89
2022-12-28T09:58:01.773Z,15.30
2022-12-28T09:59:01.771Z,15.30
2022-12-28T10:00:01.750Z,15.39
2022-12-28T10:01:01.827Z,16.10
2022-12-28T10:02:01.887Z,14.80
2022-12-28T10:03:01.752Z,15.19
2022-12-28T10:04:01.721Z,15.10
2022-12-28T10:05:01.715Z,15.39
2022-12-28T10:06:01.688Z,14.69
2022-12-28T10:07:01.683Z,14.69
2022-12-28T10:08:01.667Z,15.10
2022-12-28T10:09:01.661Z,14.69
2022-12-28T10:10:01.683Z,15.39
2022-12-28T10:11:01.637Z,15.60
2022-12-28T10:12:01.633Z,15.69
2022-12-28T10:13:01.627Z,15.10
2022-12-28T10:14:01.616Z,14.80
2022-12-28T10:15:01.609Z,15.50
2022-12-28T10:16:01.652Z,15.69
2022-12-28T10:17:01.576Z,15.80
2022-12-28T10:18:01.581Z,15.19
2022-12-28T10:19:01.556Z,15.00
2022-12-28T10:20:01.544Z,15.10
2022-12-28T10:21:01.533Z,15.80
2022-12-28T10:22:01.521Z,14.69
2022-12-28T10:23:01.515Z,15.30
2022-12-28T10:25:01.499Z,15.50
2022-12-28T10:26:01.507Z,16.00
2022-12-28T10:27:01.473Z,15.39
2022-12-28T10:28:01.466Z,15.39
2022-12-28T10:29:01.459Z,15.69
2022-12-28T10:30:01.461Z,15.19
2022-12-28T10:31:01.468Z,15.19
2022-12-28T10:32:01.430Z,16.10
2022-12-28T10:33:03.599Z,15.10
2022-12-28T10:34:01.417Z,15.60
2022-12-28T10:35:01.429Z,15.50
2022-12-28T10:36:01.379Z,15.39
2022-12-28T10:37:01.369Z,15.60
2022-12-28T10:38:01.398Z,15.60
2022-12-28T10:39:01.343Z,15.10
2022-12-28T10:40:01.334Z,15.60
2022-12-28T10:41:01.323Z,16.50
2022-12-28T10:42:01.338Z,15.10
2022-12-28T10:43:08.489Z,17.89
2022-12-28T10:44:37.402Z,18.29
2022-12-28T10:45:02.320Z,16.50
2022-12-28T10:46:01.271Z,17.29
2022-12-28T10:47:01.303Z,16.79
2022-12-28T10:48:01.253Z,16.39
2022-12-28T10:49:01.237Z,17.39
2022-12-28T10:51:01.225Z,17.50
2022-12-28T10:52:01.206Z,16.29
2022-12-28T10:53:01.202Z,23.60
2022-12-28T10:54:01.191Z,21.00
2022-12-28T10:55:08.229Z,19.89
2022-12-28T10:56:02.187Z,18.20
2022-12-28T10:57:01.156Z,17.20
2022-12-28T10:58:28.537Z,17.89
2022-12-28T10:59:02.157Z,16.89
2022-12-28T11:00:01.124Z,17.10
2022-12-28T11:01:01.257Z,16.60
2022-12-28T11:02:01.426Z,16.89
2022-12-28T11:03:01.384Z,17.39
2022-12-28T11:04:01.081Z,17.39
2022-12-28T11:05:01.079Z,17.50
2022-12-28T11:06:01.067Z,16.60
2022-12-28T11:07:01.051Z,17.39
2022-12-28T11:08:01.055Z,16.10
2022-12-28T11:09:01.029Z,16.10
2022-12-28T11:10:01.017Z,15.69
2022-12-28T11:11:01.008Z,16.00
2022-12-28T11:12:00.999Z,15.80
2022-12-28T11:13:00.988Z,15.60
2022-12-28T11:14:01.023Z,16.00
2022-12-28T11:15:00.974Z,15.39
2022-12-28T11:16:01.010Z,16.00
2022-12-28T11:17:00.955Z,15.80
2022-12-28T11:18:00.935Z,15.89
2022-12-28T11:19:00.925Z,15.69
2022-12-28T11:20:00.916Z,15.30
2022-12-28T11:21:00.920Z,15.30
2022-12-28T11:22:00.917Z,15.30
2022-12-28T11:23:00.882Z,15.30
2022-12-28T11:24:00.876Z,14.80
2022-12-28T11:25:00.867Z,15.60
2022-12-28T11:26:00.852Z,15.30
2022-12-28T11:27:00.840Z,15.89
2022-12-28T11:28:00.829Z,16.00
2022-12-28T11:29:00.822Z,15.19
2022-12-28T11:30:00.836Z,16.39
2022-12-28T11:31:00.811Z,15.80
2022-12-28T11:32:00.861Z,15.39
2022-12-28T11:33:00.797Z,16.10
2022-12-28T11:34:00.769Z,14.30
2022-12-28T11:35:00.759Z,14.00
2022-12-28T11:36:03.407Z,14.10
2022-12-28T11:37:00.748Z,14.39
2022-12-28T11:38:00.736Z,14.10
2022-12-28T11:39:00.717Z,14.30
2022-12-28T11:40:00.702Z,13.50
2022-12-28T11:41:00.695Z,14.10
2022-12-28T11:42:37.121Z,14.19
2022-12-28T11:43:01.699Z,13.80
2022-12-28T11:44:00.663Z,14.69
2022-12-28T11:45:00.667Z,13.30
2022-12-28T11:46:00.712Z,14.89
2022-12-28T11:47:00.630Z,14.89
2022-12-28T11:48:00.625Z,14.30
2022-12-28T11:49:00.611Z,14.30
2022-12-28T11:50:00.601Z,15.00
2022-12-28T11:51:00.605Z,15.60
2022-12-28T11:52:00.582Z,15.50
2022-12-28T11:53:00.573Z,15.50
2022-12-28T11:54:00.582Z,15.50
2022-12-28T11:55:00.551Z,15.60
2022-12-28T11:56:00.540Z,15.30
2022-12-28T11:57:00.528Z,15.89
2022-12-28T11:58:00.519Z,15.50
2022-12-28T11:59:00.511Z,15.60
2022-12-28T12:00:00.540Z,15.30
2022-12-28T12:01:00.547Z,15.19
2022-12-28T12:02:00.554Z,15.10
2022-12-28T12:03:00.522Z,15.89
2022-12-28T12:04:00.559Z,15.00
2022-12-28T12:05:00.450Z,14.69
2022-12-28T12:06:00.455Z,15.50
2022-12-28T12:07:00.429Z,14.89
2022-12-28T12:08:00.417Z,14.19
2022-12-28T12:09:00.411Z,14.50
2022-12-28T12:10:00.401Z,12.69
2022-12-28T12:11:00.386Z,13.60
2022-12-28T12:12:00.384Z,13.69
2022-12-28T12:13:00.368Z,13.69
2022-12-28T12:14:00.359Z,13.60
2022-12-28T12:15:00.348Z,14.60
2022-12-28T12:16:00.341Z,14.00
2022-12-28T12:17:00.381Z,14.39
2022-12-28T12:18:00.342Z,15.00
2022-12-28T12:19:00.307Z,14.19
2022-12-28T12:20:00.306Z,14.60
2022-12-28T12:21:00.281Z,15.39
2022-12-28T12:22:00.277Z,15.80
2022-12-28T12:23:00.264Z,15.69
2022-12-28T12:24:00.256Z,15.80
2022-12-28T12:25:00.245Z,17.00
2022-12-28T12:26:00.231Z,15.80
2022-12-28T12:27:00.218Z,15.10
2022-12-28T12:28:00.226Z,14.60
2022-12-28T12:29:00.199Z,15.10
2022-12-28T12:30:00.189Z,14.69
2022-12-28T12:31:00.243Z,15.69
2022-12-28T12:32:00.179Z,15.30
2022-12-28T12:33:00.157Z,16.20
2022-12-28T12:34:00.179Z,16.89
2022-12-28T12:35:00.192Z,17.70
2022-12-28T12:36:00.208Z,18.20
2022-12-28T12:37:00.113Z,18.89
2022-12-28T12:38:00.145Z,19.39
2022-12-28T12:39:00.088Z,18.70
2022-12-28T12:40:00.096Z,17.00
2022-12-28T12:41:00.075Z,15.00
2022-12-28T12:42:00.058Z,15.89
2022-12-28T12:43:00.044Z,15.39
2022-12-28T12:44:00.053Z,15.60
2022-12-28T12:45:00.035Z,15.39
2022-12-28T12:46:00.037Z,15.19
2022-12-28T12:47:05.396Z,15.60
2022-12-28T12:47:59.996Z,15.30
2022-12-28T12:48:59.983Z,15.69
2022-12-28T12:50:00.016Z,16.20
2022-12-28T12:50:59.973Z,17.00
2022-12-28T12:51:59.953Z,17.20
2022-12-28T12:52:59.940Z,17.20
2022-12-28T12:53:59.933Z,17.60
2022-12-28T12:54:59.924Z,19.60
2022-12-28T12:55:59.912Z,19.29
2022-12-28T12:56:59.899Z,22.29
2022-12-28T12:57:59.894Z,21.50
2022-12-28T12:58:59.875Z,21.10
2022-12-28T12:59:59.871Z,22.89
2022-12-28T13:01:00.001Z,21.89
2022-12-28T13:01:59.978Z,22.50
2022-12-28T13:02:59.930Z,22.00
2022-12-28T13:03:59.827Z,18.70
2022-12-28T13:04:59.814Z,16.39
2022-12-28T13:05:59.837Z,16.00
2022-12-28T13:06:59.796Z,15.39
2022-12-28T13:07:59.786Z,14.89
2022-12-28T13:09:05.063Z,17.29
2022-12-28T13:10:00.801Z,20.79
2022-12-28T13:10:59.752Z,21.70
2022-12-28T13:11:59.746Z,22.70
2022-12-28T13:12:59.737Z,22.89
2022-12-28T13:13:59.722Z,24.00
2022-12-28T13:14:59.728Z,23.60
2022-12-28T13:15:59.729Z,23.60
2022-12-28T13:16:59.706Z,24.50
2022-12-28T13:18:18.112Z,24.29
2022-12-28T13:19:00.798Z,24.50
2022-12-28T13:19:59.666Z,23.70
2022-12-28T13:20:59.649Z,17.79
2022-12-28T13:21:59.665Z,15.19
2022-12-28T13:22:59.625Z,14.00
2022-12-28T13:23:59.617Z,14.50
2022-12-28T13:24:59.610Z,14.19
2022-12-28T13:25:59.600Z,14.00
2022-12-28T13:26:59.583Z,15.30
2022-12-28T13:27:59.573Z,14.80
2022-12-28T13:28:59.614Z,16.00
2022-12-28T13:29:59.609Z,14.50
2022-12-28T13:30:59.595Z,14.39
2022-12-28T13:31:59.542Z,15.30
2022-12-28T13:32:59.523Z,16.10
2022-12-28T13:33:59.578Z,15.60
2022-12-28T13:34:59.500Z,17.70
2022-12-28T13:35:59.491Z,17.29
2022-12-28T13:36:59.487Z,17.39
2022-12-28T13:37:59.501Z,16.89
2022-12-28T13:38:59.470Z,17.39
2022-12-28T13:39:59.451Z,18.00
2022-12-28T13:40:59.463Z,16.20
2022-12-28T13:41:59.436Z,16.10
2022-12-28T13:42:59.424Z,15.50
2022-12-28T13:43:59.409Z,15.10
2022-12-28T13:44:59.398Z,17.10
2022-12-28T13:45:59.455Z,17.10
2022-12-28T13:46:59.405Z,17.00
2022-12-28T13:47:59.373Z,17.00
2022-12-28T13:48:59.374Z,17.00
2022-12-28T13:49:59.352Z,15.80
2022-12-28T13:50:59.347Z,15.80
2022-12-28T13:51:59.326Z,15.60
2022-12-28T13:52:59.318Z,16.39
2022-12-28T13:53:59.331Z,17.70
2022-12-28T13:54:59.296Z,16.50
2022-12-28T13:55:59.284Z,17.29
2022-12-28T13:57:20.901Z,18.39
2022-12-28T13:58:00.294Z,22.00
2022-12-28T13:58:59.263Z,20.29
2022-12-28T13:59:59.248Z,22.79
2022-12-28T14:00:59.258Z,22.39
2022-12-28T14:01:59.342Z,20.89
2022-12-28T14:05:20.664Z,18.79
2022-12-28T14:09:20.589Z,16.39
2022-12-28T14:25:22.327Z,15.50
2022-12-28T14:25:23.750Z,15.60
2022-12-28T14:26:23.737Z,15.19
2022-12-28T14:27:23.733Z,15.50
2022-12-28T14:28:23.733Z,15.69
2022-12-28T14:29:23.710Z,15.80
2022-12-28T14:30:23.727Z,15.39
2022-12-28T14:31:23.769Z,15.00
2022-12-28T14:32:23.678Z,15.30
2022-12-28T14:33:24.906Z,15.30
2022-12-28T14:34:25.658Z,14.89
2022-12-28T14:35:23.648Z,15.30
2022-12-28T14:36:23.652Z,14.60
2022-12-28T14:37:23.630Z,14.19
2022-12-28T14:38:23.618Z,13.80
2022-12-28T14:39:23.606Z,14.60
2022-12-28T14:40:23.599Z,14.69
2022-12-28T14:41:23.613Z,14.30
2022-12-28T14:42:23.580Z,14.89
2022-12-28T14:43:23.570Z,14.89
2022-12-28T14:44:23.563Z,14.60
2022-12-28T14:45:23.590Z,15.19
2022-12-28T14:46:23.569Z,14.80
2022-12-28T14:47:23.530Z,15.19
2022-12-28T14:48:23.512Z,16.29
2022-12-28T14:49:23.508Z,16.10
2022-12-28T14:50:23.500Z,15.60
2022-12-28T14:51:23.488Z,17.00
2022-12-28T14:52:23.479Z,16.50
2022-12-28T14:53:23.470Z,17.29
2022-12-28T14:54:23.454Z,17.39
2022-12-28T14:55:23.452Z,17.89
2022-12-28T14:56:23.435Z,19.39
2022-12-28T14:57:23.453Z,21.00
2022-12-28T14:58:23.413Z,20.79
2022-12-28T14:59:23.405Z,18.20
2022-12-28T15:00:23.393Z,20.39
2022-12-28T15:01:23.600Z,21.50
2022-12-28T15:02:23.544Z,20.79
2022-12-28T15:03:23.446Z,20.20
2022-12-28T15:04:23.345Z,20.79
2022-12-28T15:05:23.344Z,20.79
2022-12-28T15:06:23.330Z,21.39